Time;durP1;ratioP1;P1;durP2;ratioP2;P2;SDS_P1;SDS_P2;PMS_P1;PMS_P2;Temp;Humidity;BMP_temperature;BMP_pressure;BME280_temperature;BME280_humidity;BME280_pressure;Samples;Min_cycle;Max_cycle;Signal;HPM_P1;HPM_P2
2021/11/08 00:01:41;;;;;;;;;;;7.90;99.90;;;;;;5057284;28;19916;-67
2021/11/08 00:04:06;;;;;;;;;;;7.90;99.90;;;;;;5050119;28;19936;-67
2021/11/08 00:06:32;;;;;;;;;;;7.90;99.90;;;;;;5056756;28;20645;-68
2021/11/08 00:08:57;;;;;;;;;;;7.90;99.90;;;;;;5055798;28;19920;-68
2021/11/08 00:11:24;;;;;;;;;;;7.90;99.90;;;;;;5051886;28;19924;-67
2021/11/08 00:13:50;;;;;;;;;;;7.80;99.90;;;;;;5054151;28;19931;-68
2021/11/08 00:16:31;;;;;;;;;;;7.80;99.90;;;;;;5055021;28;19916;-67
2021/11/08 00:21:22;;;;;;;;;;;7.80;99.90;;;;;;5055627;28;19920;-68
2021/11/08 00:23:50;;;;;;;;;;;7.80;99.90;;;;;;5054260;28;19952;-67
2021/11/08 00:26:15;;;;;;;;;;;7.80;99.90;;;;;;5073819;28;19927;-67
2021/11/08 00:28:42;;;;;;;;;;;7.70;99.90;;;;;;5053786;28;19916;-67
2021/11/08 00:31:08;;;;;;;;;;;7.70;99.90;;;;;;5047099;28;20372;-68
2021/11/08 00:33:33;;;;;;;;;;;7.60;99.90;;;;;;5028844;28;19929;-67
2021/11/08 00:36:00;;;;;;;;;;;7.60;99.90;;;;;;5056564;28;20396;-67
2021/11/08 00:38:26;;;;;;;;;;;7.60;99.90;;;;;;5056125;28;19916;-68
2021/11/08 00:40:53;;;;;;;;;;;7.60;99.90;;;;;;5047615;28;19923;-68
2021/11/08 00:43:19;;;;;;;;;;;7.60;99.90;;;;;;5050076;28;20011;-67
2021/11/08 00:45:44;;;;;;;;;;;7.60;99.90;;;;;;5048911;28;19927;-67
2021/11/08 00:48:10;;;;;;;;;;;7.70;99.90;;;;;;5052192;28;20038;-67
2021/11/08 00:50:36;;;;;;;;;;;7.60;99.90;;;;;;5073293;28;20010;-68
2021/11/08 00:53:02;;;;;;;;;;;7.70;99.90;;;;;;5052152;28;19975;-67
2021/11/08 00:55:30;;;;;;;;;;;7.80;99.90;;;;;;5052161;28;19963;-67
2021/11/08 00:57:57;;;;;;;;;;;7.90;99.90;;;;;;5054971;28;19939;-67
2021/11/08 01:00:28;;;;;;;;;;;7.90;99.90;;;;;;5070384;28;19920;-68
2021/11/08 01:02:54;;;;;;;;;;;7.90;99.90;;;;;;5054340;28;19924;-68
2021/11/08 01:05:19;;;;;;;;;;;7.90;99.90;;;;;;5054172;28;20366;-67
2021/11/08 01:07:45;;;;;;;;;;;7.90;99.90;;;;;;5053947;28;19916;-67
2021/11/08 01:10:11;;;;;;;;;;;8.00;99.90;;;;;;5072290;28;19916;-67
2021/11/08 01:12:37;;;;;;;;;;;8.00;99.90;;;;;;5051544;28;19916;-67
2021/11/08 01:15:03;;;;;;;;;;;8.00;99.90;;;;;;5069419;28;19981;-67
2021/11/08 01:17:28;;;;;;;;;;;7.90;99.90;;;;;;5042689;28;19925;-67
2021/11/08 01:19:54;;;;;;;;;;;7.90;99.90;;;;;;5073610;22;20019;-68
2021/11/08 01:22:21;;;;;;;;;;;7.80;99.90;;;;;;5035888;28;19952;-68
2021/11/08 01:24:57;;;;;;;;;;;7.80;99.90;;;;;;5050849;28;19921;-68
2021/11/08 01:27:33;;;;;;;;;;;7.80;99.90;;;;;;5038808;28;20007;-68
2021/11/08 01:29:59;;;;;;;;;;;7.90;99.90;;;;;;5050765;28;19917;-68
2021/11/08 01:32:25;;;;;;;;;;;7.90;99.90;;;;;;5048160;28;19917;-68
2021/11/08 01:34:50;;;;;;;;;;;7.80;99.90;;;;;;5035051;28;19921;-68
2021/11/08 01:37:20;;;;;;;;;;;7.70;99.90;;;;;;5048727;28;20019;-68
2021/11/08 01:39:46;;;;;;;;;;;7.70;99.90;;;;;;5046998;28;20324;-68
2021/11/08 01:42:13;;;;;;;;;;;7.60;99.90;;;;;;5049038;28;19923;-68
2021/11/08 01:44:39;;;;;;;;;;;7.60;99.90;;;;;;5049069;28;19916;-68
2021/11/08 01:47:05;;;;;;;;;;;7.60;99.90;;;;;;5047226;28;19924;-67
2021/11/08 01:49:31;;;;;;;;;;;7.60;99.90;;;;;;5046838;28;19969;-68
2021/11/08 01:51:58;;;;;;;;;;;7.60;99.90;;;;;;5035947;28;19916;-68
2021/11/08 01:54:24;;;;;;;;;;;7.70;99.90;;;;;;5041229;28;20442;-68
2021/11/08 01:56:53;;;;;;;;;;;7.70;99.90;;;;;;5032620;28;20378;-68
2021/11/08 01:59:19;;;;;;;;;;;7.70;99.90;;;;;;5036583;28;19917;-68
2021/11/08 02:01:45;;;;;;;;;;;7.80;99.90;;;;;;5015656;28;19940;-68
2021/11/08 02:04:11;;;;;;;;;;;7.70;99.90;;;;;;5045747;28;20354;-68
2021/11/08 02:06:36;;;;;;;;;;;7.70;99.90;;;;;;5046926;28;20370;-68
2021/11/08 02:09:03;;;;;;;;;;;7.60;99.90;;;;;;5040331;28;19999;-68
2021/11/08 02:11:30;;;;;;;;;;;7.70;99.90;;;;;;5039764;28;19916;-68
2021/11/08 02:13:56;;;;;;;;;;;7.70;99.90;;;;;;5046723;28;19927;-68
2021/11/08 02:16:21;;;;;;;;;;;7.60;99.90;;;;;;5051075;28;19921;-68
2021/11/08 02:18:47;;;;;;;;;;;7.60;99.90;;;;;;5038398;28;19917;-68
2021/11/08 02:21:13;;;;;;;;;;;7.60;99.90;;;;;;5027818;28;19925;-68
2021/11/08 02:23:40;;;;;;;;;;;7.60;99.90;;;;;;5025622;28;19921;-68
2021/11/08 02:26:10;;;;;;;;;;;7.50;99.90;;;;;;5018919;28;19917;-68
2021/11/08 02:28:37;;;;;;;;;;;7.50;99.90;;;;;;5026258;28;19921;-68
2021/11/08 02:31:03;;;;;;;;;;;7.40;99.90;;;;;;5014479;28;19928;-68
2021/11/08 02:33:28;;;;;;;;;;;7.30;99.90;;;;;;5019488;28;20267;-68
2021/11/08 02:35:55;;;;;;;;;;;7.30;99.90;;;;;;5029764;28;19952;-68
2021/11/08 02:38:30;;;;;;;;;;;7.20;99.90;;;;;;5015019;28;19925;-68
2021/11/08 02:40:57;;;;;;;;;;;7.20;99.90;;;;;;5020626;28;19928;-68
2021/11/08 02:43:25;;;;;;;;;;;7.10;99.90;;;;;;5013843;28;20317;-68
2021/11/08 02:45:56;;;;;;;;;;;7.10;99.90;;;;;;5025522;28;20382;-68
2021/11/08 02:48:21;;;;;;;;;;;7.00;99.90;;;;;;5015671;28;19961;-68
2021/11/08 02:50:54;;;;;;;;;;;7.00;99.90;;;;;;5016913;28;20390;-68
2021/11/08 02:53:20;;;;;;;;;;;7.00;99.90;;;;;;5022230;28;20310;-68
2021/11/08 02:55:48;;;;;;;;;;;6.90;99.90;;;;;;5013611;28;19974;-68
2021/11/08 02:58:13;;;;;;;;;;;6.90;99.90;;;;;;5026833;28;20003;-68
2021/11/08 03:00:39;;;;;;;;;;;7.00;99.90;;;;;;5020484;28;20504;-68
2021/11/08 03:03:05;;;;;;;;;;;7.00;99.90;;;;;;5010685;28;19924;-68
2021/11/08 03:05:32;;;;;;;;;;;7.00;99.90;;;;;;5026388;28;19921;-68
2021/11/08 03:07:58;;;;;;;;;;;7.10;99.90;;;;;;5021103;28;19949;-68
2021/11/08 03:10:25;;;;;;;;;;;7.10;99.90;;;;;;4994457;28;20354;-68
2021/11/08 03:12:53;;;;;;;;;;;7.10;99.90;;;;;;5021949;28;19921;-68
2021/11/08 03:15:38;;;;;;;;;;;7.20;99.90;;;;;;5022485;28;20074;-68
2021/11/08 03:18:17;;;;;;;;;;;7.20;99.90;;;;;;5014032;28;19925;-68
2021/11/08 03:20:42;;;;;;;;;;;7.30;99.90;;;;;;5045568;28;19920;-68
2021/11/08 03:23:08;;;;;;;;;;;7.30;99.90;;;;;;5051483;28;20289;-68
2021/11/08 03:25:41;;;;;;;;;;;7.30;99.90;;;;;;5047869;28;19973;-69
2021/11/08 03:28:08;;;;;;;;;;;7.30;99.90;;;;;;5034065;28;19963;-68
2021/11/08 03:30:37;;;;;;;;;;;7.20;99.90;;;;;;5040964;28;19925;-68
2021/11/08 03:33:04;;;;;;;;;;;7.20;99.90;;;;;;5034306;28;19921;-68
2021/11/08 03:35:29;;;;;;;;;;;7.10;99.90;;;;;;5051670;28;19920;-68
2021/11/08 03:37:56;;;;;;;;;;;7.00;99.90;;;;;;5057510;28;19973;-68
2021/11/08 03:40:23;;;;;;;;;;;7.00;99.90;;;;;;5056409;28;19920;-68
2021/11/08 03:42:51;;;;;;;;;;;7.00;99.90;;;;;;5041148;28;19921;-68
2021/11/08 03:45:17;;;;;;;;;;;7.00;99.90;;;;;;5046183;28;19916;-68
2021/11/08 03:47:43;;;;;;;;;;;6.90;99.90;;;;;;5044108;28;19962;-68
2021/11/08 03:50:09;;;;;;;;;;;6.90;99.90;;;;;;5048963;28;19921;-68
2021/11/08 03:52:36;;;;;;;;;;;6.80;99.90;;;;;;5054231;28;19923;-68
2021/11/08 03:55:01;;;;;;;;;;;6.70;99.90;;;;;;5042893;28;20362;-69
2021/11/08 03:57:27;;;;;;;;;;;6.70;99.90;;;;;;5040610;28;19920;-68
2021/11/08 03:59:53;;;;;;;;;;;6.70;99.90;;;;;;5055313;28;19995;-68
2021/11/08 04:02:19;;;;;;;;;;;6.60;99.90;;;;;;5068183;28;19921;-68
2021/11/08 04:04:44;;;;;;;;;;;6.60;99.90;;;;;;5045455;28;19947;-68
2021/11/08 04:07:10;;;;;;;;;;;6.60;99.90;;;;;;5036902;28;19920;-69
2021/11/08 04:09:35;;;;;;;;;;;6.50;99.90;;;;;;5069938;28;20277;-68
2021/11/08 04:12:01;;;;;;;;;;;6.50;99.90;;;;;;5050663;28;20024;-68
2021/11/08 04:14:26;;;;;;;;;;;6.50;99.90;;;;;;5045725;28;19963;-68
2021/11/08 04:16:53;;;;;;;;;;;6.50;99.90;;;;;;5046801;28;20661;-68
2021/11/08 04:19:19;;;;;;;;;;;6.50;99.90;;;;;;5041570;28;19958;-68
2021/11/08 04:21:44;;;;;;;;;;;6.60;99.90;;;;;;5039969;28;19931;-68
2021/11/08 04:24:10;;;;;;;;;;;6.60;99.90;;;;;;5064365;28;19916;-69
2021/11/08 04:26:37;;;;;;;;;;;6.70;99.90;;;;;;5051672;28;20346;-68
2021/11/08 04:29:04;;;;;;;;;;;6.80;99.90;;;;;;5043173;28;20297;-68
2021/11/08 04:31:31;;;;;;;;;;;6.90;99.90;;;;;;5049726;28;19917;-68
2021/11/08 04:34:03;;;;;;;;;;;6.90;99.90;;;;;;5061211;28;19917;-68
2021/11/08 04:37:39;;;;;;;;;;;7.00;99.90;;;;;;5038907;28;20461;-68
2021/11/08 04:42:04;;;;;;;;;;;7.10;99.90;;;;;;5038873;28;19960;-68
2021/11/08 04:50:06;;;;;;;;;;;7.40;99.90;;;;;;5041281;28;20303;-68
2021/11/08 04:57:48;;;;;;;;;;;7.40;99.90;;;;;;5038916;28;19927;-68
2021/11/08 05:30:07;;;;;;;;;;;6.60;99.90;;;;;;5020036;28;20401;-68
2021/11/08 05:32:35;;;;;;;;;;;6.60;99.90;;;;;;5022841;28;20011;-68
2021/11/08 05:35:00;;;;;;;;;;;6.60;99.90;;;;;;5019982;28;19970;-68
2021/11/08 05:37:27;;;;;;;;;;;6.60;99.90;;;;;;5019879;28;19917;-68
2021/11/08 05:39:55;;;;;;;;;;;6.60;99.90;;;;;;5021430;28;19917;-68
2021/11/08 05:42:21;;;;;;;;;;;6.60;99.90;;;;;;5033464;28;19921;-68
2021/11/08 05:44:47;;;;;;;;;;;6.60;99.90;;;;;;5033148;28;19921;-68
2021/11/08 05:47:12;;;;;;;;;;;6.50;99.90;;;;;;5021146;28;20012;-68
2021/11/08 05:49:39;;;;;;;;;;;6.50;99.90;;;;;;5015325;28;20008;-68
2021/11/08 05:52:04;;;;;;;;;;;6.40;99.90;;;;;;5031530;28;19927;-68
2021/11/08 05:54:30;;;;;;;;;;;6.50;99.90;;;;;;5029372;28;19921;-68
2021/11/08 05:57:14;;;;;;;;;;;6.50;99.90;;;;;;5012235;28;19929;-68
2021/11/08 06:49:13;;;;;;;;;;;6.60;99.90;;;;;;5027032;28;19924;-68
2021/11/08 06:51:39;;;;;;;;;;;6.70;99.90;;;;;;5029078;28;19917;-68
2021/11/08 06:54:05;;;;;;;;;;;6.70;99.90;;;;;;5028216;28;19932;-68
2021/11/08 06:56:37;;;;;;;;;;;6.70;99.90;;;;;;5029392;28;19917;-68
2021/11/08 06:59:04;;;;;;;;;;;6.70;99.90;;;;;;5027814;28;19917;-68
2021/11/08 07:01:31;;;;;;;;;;;6.80;99.90;;;;;;5031161;28;19948;-68
2021/11/08 07:03:56;;;;;;;;;;;6.90;99.90;;;;;;5030092;28;19917;-68
2021/11/08 07:06:22;;;;;;;;;;;6.90;99.90;;;;;;5030003;28;20334;-68
2021/11/08 07:08:48;;;;;;;;;;;7.00;99.90;;;;;;5031131;28;20321;-68
2021/11/08 07:11:13;;;;;;;;;;;7.00;99.90;;;;;;5030652;28;20128;-68
2021/11/08 07:13:39;;;;;;;;;;;7.10;99.90;;;;;;5022664;28;19925;-68
2021/11/08 07:16:04;;;;;;;;;;;7.20;99.90;;;;;;5029910;28;20281;-68
2021/11/08 07:18:30;;;;;;;;;;;7.20;99.90;;;;;;5029918;28;19975;-68
2021/11/08 07:20:55;;;;;;;;;;;7.20;99.90;;;;;;5029888;28;20311;-68
2021/11/08 07:23:21;;;;;;;;;;;7.30;99.90;;;;;;5030153;28;19939;-68
2021/11/08 07:25:46;;;;;;;;;;;7.30;99.90;;;;;;5029869;28;19921;-68
2021/11/08 07:28:14;;;;;;;;;;;7.40;99.90;;;;;;5029763;28;19959;-68
2021/11/08 07:30:43;;;;;;;;;;;7.40;99.90;;;;;;5031068;28;19917;-68
2021/11/08 07:33:08;;;;;;;;;;;7.40;99.90;;;;;;5029848;28;20310;-68
2021/11/08 07:35:34;;;;;;;;;;;7.50;99.90;;;;;;5031359;28;19925;-68
2021/11/08 07:37:59;;;;;;;;;;;7.60;99.90;;;;;;5030017;28;19960;-68
2021/11/08 07:40:25;;;;;;;;;;;7.60;99.90;;;;;;5029964;28;19924;-68
2021/11/08 07:42:50;;;;;;;;;;;7.60;99.90;;;;;;5030142;28;19917;-68
2021/11/08 07:45:16;;;;;;;;;;;7.60;99.90;;;;;;5029555;28;19947;-68
2021/11/08 07:47:41;;;;;;;;;;;7.70;99.90;;;;;;5028368;28;19917;-68
2021/11/08 07:50:07;;;;;;;;;;;7.80;99.90;;;;;;5031254;28;20568;-68
2021/11/08 07:52:33;;;;;;;;;;;7.90;99.90;;;;;;5027552;28;19925;-68
2021/11/08 07:54:59;;;;;;;;;;;8.00;99.90;;;;;;5029663;28;19963;-68
2021/11/08 07:57:25;;;;;;;;;;;8.20;99.90;;;;;;5029777;28;19924;-68
2021/11/08 07:59:50;;;;;;;;;;;8.20;99.90;;;;;;5028580;28;19924;-68
2021/11/08 08:02:15;;;;;;;;;;;8.30;99.90;;;;;;5028785;28;19994;-68
2021/11/08 08:04:41;;;;;;;;;;;8.40;99.90;;;;;;5029314;28;19946;-68
2021/11/08 08:07:07;;;;;;;;;;;8.50;99.90;;;;;;5029438;28;20364;-68
2021/11/08 08:09:32;;;;;;;;;;;8.50;99.90;;;;;;5029782;28;19928;-68
2021/11/08 08:11:58;;;;;;;;;;;8.50;99.90;;;;;;5029786;28;19917;-68
2021/11/08 08:14:24;;;;;;;;;;;8.50;99.90;;;;;;5027370;28;21217;-68
2021/11/08 08:16:49;;;;;;;;;;;8.50;99.90;;;;;;5025747;28;19925;-68
2021/11/08 08:19:15;;;;;;;;;;;8.60;99.90;;;;;;5028694;28;20390;-69
2021/11/08 08:21:41;;;;;;;;;;;8.70;99.90;;;;;;5004178;28;19987;-68
2021/11/08 08:24:06;;;;;;;;;;;8.70;99.90;;;;;;5021536;28;20272;-68
2021/11/08 08:26:34;;;;;;;;;;;8.70;99.90;;;;;;5026219;28;19917;-68
2021/11/08 08:29:07;;;;;;;;;;;8.80;99.90;;;;;;5025525;28;19921;-69
2021/11/08 08:31:34;;;;;;;;;;;8.80;99.90;;;;;;5029759;28;20011;-69
2021/11/08 08:33:59;;;;;;;;;;;8.90;99.90;;;;;;5032295;28;19924;-68
2021/11/08 08:36:25;;;;;;;;;;;8.90;99.90;;;;;;5031209;28;19924;-68
2021/11/08 08:38:51;;;;;;;;;;;9.00;99.90;;;;;;5032969;28;19917;-68
2021/11/08 08:41:16;;;;;;;;;;;9.10;99.90;;;;;;5032293;28;19917;-68
2021/11/08 08:43:42;;;;;;;;;;;9.20;99.90;;;;;;5032466;28;19928;-68
2021/11/08 08:46:07;;;;;;;;;;;9.20;99.90;;;;;;5032108;28;19921;-68
2021/11/08 08:48:33;;;;;;;;;;;9.30;99.90;;;;;;5032596;28;19917;-68
2021/11/08 08:50:59;;;;;;;;;;;9.50;99.90;;;;;;5027159;28;20344;-68
2021/11/08 08:53:25;;;;;;;;;;;9.50;99.90;;;;;;5031993;28;20345;-68
2021/11/08 08:55:51;;;;;;;;;;;9.50;99.90;;;;;;5032191;28;20028;-69
2021/11/08 08:58:16;;;;;;;;;;;9.60;99.90;;;;;;5014613;28;20044;-68
2021/11/08 09:00:44;;;;;;;;;;;9.50;99.90;;;;;;5029299;28;20324;-68
2021/11/08 09:03:09;;;;;;;;;;;9.60;99.90;;;;;;5032583;28;19921;-68
2021/11/08 09:05:35;;;;;;;;;;;9.60;99.90;;;;;;5033562;28;20267;-68
2021/11/08 09:08:01;;;;;;;;;;;9.70;99.90;;;;;;5031664;28;19917;-68
2021/11/08 09:10:28;;;;;;;;;;;9.70;99.90;;;;;;5032847;28;20477;-69
2021/11/08 09:12:54;;;;;;;;;;;9.70;99.90;;;;;;5032373;28;19921;-69
2021/11/08 09:15:21;;;;;;;;;;;9.70;99.90;;;;;;5032294;28;20539;-69
2021/11/08 09:17:46;;;;;;;;;;;9.80;99.90;;;;;;5011945;28;19968;-69
2021/11/08 09:20:14;;;;;;;;;;;9.70;99.90;;;;;;5023988;28;20334;-69
2021/11/08 09:22:42;;;;;;;;;;;9.70;99.90;;;;;;5032404;28;20003;-69
2021/11/08 09:25:09;;;;;;;;;;;9.70;99.90;;;;;;5032001;28;19921;-69
2021/11/08 09:27:34;;;;;;;;;;;9.70;99.90;;;;;;5032450;28;19928;-69
2021/11/08 09:30:00;;;;;;;;;;;9.80;99.90;;;;;;5030382;28;19929;-69
2021/11/08 09:32:25;;;;;;;;;;;9.80;99.90;;;;;;5032048;28;19946;-69
2021/11/08 09:34:52;;;;;;;;;;;9.80;99.90;;;;;;5031342;28;19921;-70
2021/11/08 09:37:18;;;;;;;;;;;9.80;99.90;;;;;;5031889;28;19928;-69
2021/11/08 09:39:46;;;;;;;;;;;9.80;99.90;;;;;;5032215;28;20011;-69
2021/11/08 09:42:13;;;;;;;;;;;9.90;99.90;;;;;;5014599;28;19917;-69
2021/11/08 09:44:39;;;;;;;;;;;9.90;99.90;;;;;;5031594;28;20244;-69
2021/11/08 09:47:07;;;;;;;;;;;9.90;99.90;;;;;;5025597;28;19928;-69
2021/11/08 09:49:33;;;;;;;;;;;9.90;99.90;;;;;;5028293;28;19924;-69
2021/11/08 09:51:59;;;;;;;;;;;9.90;99.90;;;;;;5022533;28;19921;-69
2021/11/08 09:54:28;;;;;;;;;;;10.00;99.90;;;;;;5005499;28;20861;-69
2021/11/08 09:56:56;;;;;;;;;;;10.10;99.90;;;;;;5021838;28;19960;-69
2021/11/08 09:59:21;;;;;;;;;;;10.10;99.90;;;;;;5021837;28;19925;-69
2021/11/08 10:01:48;;;;;;;;;;;10.20;99.90;;;;;;5015720;28;19925;-69
2021/11/08 10:04:14;;;;;;;;;;;10.40;99.90;;;;;;5008008;28;19917;-69
2021/11/08 10:06:40;;;;;;;;;;;10.50;99.90;;;;;;5005106;28;20403;-69
2021/11/08 10:09:07;;;;;;;;;;;10.80;99.90;;;;;;5021648;28;19917;-69
2021/11/08 10:11:34;;;;;;;;;;;11.00;99.90;;;;;;5022732;28;20268;-69
2021/11/08 10:14:00;;;;;;;;;;;11.00;99.90;;;;;;5030638;28;20020;-69
2021/11/08 10:16:33;;;;;;;;;;;11.00;99.90;;;;;;5030809;28;19996;-70
2021/11/08 10:19:01;;;;;;;;;;;11.10;99.90;;;;;;5030931;28;19925;-69
2021/11/08 10:21:31;;;;;;;;;;;11.10;99.90;;;;;;4994970;28;19925;-69
2021/11/08 10:23:59;;;;;;;;;;;11.20;99.90;;;;;;5018620;28;20310;-69
2021/11/08 10:26:26;;;;;;;;;;;11.30;99.90;;;;;;5030811;28;19921;-69
2021/11/08 10:28:53;;;;;;;;;;;11.20;99.90;;;;;;5030370;28;20271;-69
2021/11/08 10:31:19;;;;;;;;;;;11.20;99.90;;;;;;5029444;28;20028;-69
2021/11/08 10:33:46;;;;;;;;;;;11.10;99.90;;;;;;5029777;28;19937;-69
2021/11/08 10:36:11;;;;;;;;;;;11.10;99.90;;;;;;5030303;28;19956;-73
2021/11/08 10:38:37;;;;;;;;;;;11.00;99.90;;;;;;5012854;28;20052;-70
2021/11/08 10:41:09;;;;;;;;;;;10.90;99.90;;;;;;5016074;28;19927;-70
2021/11/08 10:43:54;;;;;;;;;;;10.90;99.90;;;;;;5012400;28;20286;-69
2021/11/08 10:46:25;;;;;;;;;;;10.80;99.90;;;;;;5020562;28;19928;-70
2021/11/08 10:48:52;;;;;;;;;;;10.80;99.90;;;;;;5015868;28;19921;-70
2021/11/08 10:51:19;;;;;;;;;;;10.70;99.90;;;;;;5030674;28;19924;-70
2021/11/08 10:53:46;;;;;;;;;;;10.80;99.90;;;;;;5015586;28;19925;-69
2021/11/08 10:56:14;;;;;;;;;;;10.80;99.90;;;;;;5026517;28;20382;-69
2021/11/08 10:58:47;;;;;;;;;;;10.80;99.90;;;;;;5018896;28;20000;-71
2021/11/08 11:01:24;;;;;;;;;;;10.80;99.90;;;;;;5019938;28;19921;-70
2021/11/08 11:03:51;;;;;;;;;;;10.90;99.90;;;;;;5006680;28;19926;-70
2021/11/08 11:06:17;;;;;;;;;;;10.90;99.90;;;;;;5013840;28;20299;-70
2021/11/08 11:08:47;;;;;;;;;;;10.90;99.90;;;;;;5020174;28;19921;-70
2021/11/08 11:11:13;;;;;;;;;;;11.00;99.90;;;;;;5009908;28;19917;-70
2021/11/08 11:13:47;;;;;;;;;;;11.00;99.90;;;;;;5012567;28;19929;-70
2021/11/08 11:16:13;;;;;;;;;;;11.00;99.90;;;;;;5017027;28;20326;-70
2021/11/08 11:18:38;;;;;;;;;;;11.10;99.90;;;;;;5027755;28;19960;-70
2021/11/08 11:21:17;;;;;;;;;;;11.00;99.90;;;;;;5045900;28;19925;-70
2021/11/08 11:23:54;;;;;;;;;;;11.00;99.90;;;;;;5035728;28;19916;-70
2021/11/08 11:26:23;;;;;;;;;;;11.10;99.90;;;;;;5037220;28;19960;-70
2021/11/08 11:28:50;;;;;;;;;;;11.10;99.90;;;;;;5035850;28;19924;-70
2021/11/08 11:31:20;;;;;;;;;;;11.10;99.90;;;;;;5035042;28;19956;-70
2021/11/08 11:33:46;;;;;;;;;;;11.20;99.90;;;;;;5037020;28;20040;-70
2021/11/08 11:36:15;;;;;;;;;;;11.40;99.90;;;;;;5039365;28;20377;-70
2021/11/08 11:38:48;;;;;;;;;;;11.40;99.90;;;;;;5017391;28;20028;-70
2021/11/08 11:41:18;;;;;;;;;;;11.50;99.90;;;;;;5040610;28;19921;-70
2021/11/08 11:43:49;;;;;;;;;;;11.50;99.90;;;;;;5040803;28;19932;-70
2021/11/08 11:46:16;;;;;;;;;;;11.50;99.90;;;;;;5037670;28;19928;-70
2021/11/08 11:48:42;;;;;;;;;;;11.40;99.90;;;;;;5035491;28;20063;-69
2021/11/08 11:51:10;;;;;;;;;;;11.30;99.90;;;;;;5034227;28;20078;-69
2021/11/08 11:53:35;;;;;;;;;;;11.30;99.90;;;;;;5037177;28;19929;-70
2021/11/08 11:56:01;;;;;;;;;;;11.30;99.90;;;;;;5038067;28;19940;-70
2021/11/08 11:58:27;;;;;;;;;;;11.30;99.90;;;;;;5042951;28;19920;-70
2021/11/08 12:00:55;;;;;;;;;;;11.40;99.90;;;;;;5043238;28;19921;-70
2021/11/08 12:03:21;;;;;;;;;;;11.50;99.90;;;;;;5041864;28;20393;-70
2021/11/08 12:05:54;;;;;;;;;;;11.40;99.90;;;;;;5042013;28;19917;-70
2021/11/08 12:08:19;;;;;;;;;;;11.20;99.90;;;;;;5057690;28;20279;-70
2021/11/08 12:10:51;;;;;;;;;;;11.20;99.90;;;;;;5042332;28;19920;-71
2021/11/08 12:13:22;;;;;;;;;;;11.20;99.90;;;;;;5038991;28;19917;-70
2021/11/08 12:15:48;;;;;;;;;;;11.10;99.90;;;;;;5041595;28;20020;-70
2021/11/08 12:18:15;;;;;;;;;;;11.20;99.90;;;;;;5043402;28;20011;-71
2021/11/08 12:20:43;;;;;;;;;;;11.20;99.90;;;;;;5049371;28;19969;-70
2021/11/08 12:23:12;;;;;;;;;;;11.20;99.90;;;;;;5044961;28;19917;-70
2021/11/08 12:25:42;;;;;;;;;;;11.20;99.90;;;;;;5043714;28;20393;-69
2021/11/08 12:28:10;;;;;;;;;;;11.20;99.90;;;;;;5049219;28;20026;-70
2021/11/08 12:30:37;;;;;;;;;;;11.30;99.90;;;;;;5041097;28;19955;-70
2021/11/08 12:33:21;;;;;;;;;;;11.20;99.90;;;;;;5048158;28;19917;-70
2021/11/08 12:35:47;;;;;;;;;;;11.30;99.90;;;;;;5038683;28;19942;-70
2021/11/08 12:38:21;;;;;;;;;;;11.30;99.90;;;;;;5047313;28;20357;-70
2021/11/08 12:40:48;;;;;;;;;;;11.40;99.90;;;;;;5045152;28;19917;-70
2021/11/08 12:43:24;;;;;;;;;;;11.40;99.90;;;;;;5042145;28;19920;-70
2021/11/08 12:45:49;;;;;;;;;;;11.40;99.90;;;;;;5075607;28;19920;-69
2021/11/08 12:48:17;;;;;;;;;;;11.40;99.90;;;;;;5073389;22;20090;-72
2021/11/08 12:50:44;;;;;;;;;;;11.50;99.90;;;;;;5066636;28;20044;-71
2021/11/08 12:53:24;;;;;;;;;;;11.60;99.90;;;;;;5050830;28;19924;-72
2021/11/08 12:55:49;;;;;;;;;;;11.60;99.90;;;;;;5064342;28;19928;-72
2021/11/08 12:58:15;;;;;;;;;;;11.70;99.90;;;;;;5073477;28;19924;-72
2021/11/08 13:00:43;;;;;;;;;;;11.70;99.90;;;;;;5072752;28;19916;-71
2021/11/08 13:03:14;;;;;;;;;;;11.60;99.90;;;;;;5069482;28;20572;-71
2021/11/08 13:05:47;;;;;;;;;;;11.60;99.90;;;;;;5056513;28;19924;-71
2021/11/08 13:08:23;;;;;;;;;;;11.50;99.90;;;;;;5072973;28;20365;-71
2021/11/08 13:11:11;;;;;;;;;;;11.40;99.90;;;;;;5086709;28;19959;-72
2021/11/08 13:13:41;;;;;;;;;;;11.30;99.90;;;;;;5071451;28;19937;-71
2021/11/08 13:16:11;;;;;;;;;;;11.20;99.90;;;;;;5066172;28;19928;-71
2021/11/08 13:18:38;;;;;;;;;;;11.10;99.90;;;;;;5073146;28;19962;-71
2021/11/08 13:21:04;;;;;;;;;;;11.10;99.90;;;;;;5074050;28;19920;-71
2021/11/08 13:23:31;;;;;;;;;;;11.10;99.90;;;;;;5074623;28;19969;-71
2021/11/08 13:25:57;;;;;;;;;;;11.20;99.90;;;;;;5073828;28;19934;-71
2021/11/08 13:28:27;;;;;;;;;;;11.20;99.90;;;;;;5074202;28;20010;-71
2021/11/08 13:30:58;;;;;;;;;;;11.20;99.90;;;;;;5065729;28;19917;-71
2021/11/08 13:33:28;;;;;;;;;;;11.30;99.90;;;;;;5060831;28;19916;-71
2021/11/08 13:35:54;;;;;;;;;;;11.30;99.90;;;;;;5073633;28;19963;-70
2021/11/08 13:38:24;;;;;;;;;;;11.30;99.90;;;;;;5065784;28;19923;-71
2021/11/08 13:40:58;;;;;;;;;;;11.20;99.90;;;;;;5056879;28;20041;-71
2021/11/08 13:43:27;;;;;;;;;;;11.20;99.90;;;;;;5047791;28;19920;-70
2021/11/08 13:45:58;;;;;;;;;;;11.30;99.90;;;;;;5056546;28;20441;-71
2021/11/08 13:48:23;;;;;;;;;;;11.20;99.90;;;;;;5062557;28;20281;-71
2021/11/08 13:50:49;;;;;;;;;;;11.20;99.90;;;;;;5054097;28;19939;-71
2021/11/08 13:53:16;;;;;;;;;;;11.20;99.90;;;;;;5054325;28;19920;-71
2021/11/08 13:55:42;;;;;;;;;;;11.10;99.90;;;;;;5054312;28;19975;-71
2021/11/08 13:58:08;;;;;;;;;;;11.10;99.90;;;;;;5065731;28;19920;-71
2021/11/08 14:00:33;;;;;;;;;;;11.10;99.90;;;;;;5070259;28;19916;-71
2021/11/08 14:03:10;;;;;;;;;;;11.10;99.90;;;;;;5085066;28;19967;-71
2021/11/08 14:05:44;;;;;;;;;;;11.10;99.90;;;;;;5068584;28;20011;-72
2021/11/08 14:08:09;;;;;;;;;;;11.10;99.90;;;;;;5067216;28;19926;-71
2021/11/08 14:10:35;;;;;;;;;;;11.10;99.90;;;;;;5072473;28;19920;-71
2021/11/08 14:13:09;;;;;;;;;;;11.10;99.90;;;;;;5065723;28;19923;-71
2021/11/08 14:15:34;;;;;;;;;;;11.10;99.90;;;;;;5064225;28;19923;-71
2021/11/08 14:18:00;;;;;;;;;;;11.20;99.90;;;;;;5062781;28;19927;-71
2021/11/08 14:20:27;;;;;;;;;;;11.20;99.90;;;;;;5070140;28;20270;-71
2021/11/08 14:22:52;;;;;;;;;;;11.10;99.90;;;;;;5066918;28;19915;-71
2021/11/08 14:25:18;;;;;;;;;;;11.10;99.90;;;;;;5071802;28;20011;-71
2021/11/08 14:27:44;;;;;;;;;;;11.00;99.90;;;;;;5070123;28;19923;-71
2021/11/08 14:30:22;;;;;;;;;;;10.90;99.90;;;;;;5068234;28;21616;-71
2021/11/08 14:32:50;;;;;;;;;;;10.90;99.90;;;;;;5083380;28;19939;-71
2021/11/08 14:35:20;;;;;;;;;;;10.90;99.90;;;;;;5071771;28;19916;-71
2021/11/08 14:37:59;;;;;;;;;;;10.90;99.90;;;;;;5060065;28;19927;-71
2021/11/08 14:40:29;;;;;;;;;;;10.80;99.90;;;;;;5064463;28;20384;-71
2021/11/08 14:42:54;;;;;;;;;;;10.80;99.90;;;;;;5071475;28;20198;-71
2021/11/08 14:45:19;;;;;;;;;;;10.80;99.90;;;;;;5069216;28;20415;-71
2021/11/08 14:47:54;;;;;;;;;;;10.80;99.90;;;;;;5067967;28;19920;-71
2021/11/08 14:50:26;;;;;;;;;;;10.80;99.90;;;;;;5064420;28;19960;-71
2021/11/08 14:52:52;;;;;;;;;;;10.70;99.90;;;;;;5067884;28;19956;-71
2021/11/08 14:55:19;;;;;;;;;;;10.60;99.90;;;;;;5070412;28;20433;-71
2021/11/08 14:57:46;;;;;;;;;;;10.60;99.90;;;;;;5068254;28;20014;-71
2021/11/08 15:00:11;;;;;;;;;;;10.50;99.90;;;;;;5070190;28;19920;-71
2021/11/08 15:02:37;;;;;;;;;;;10.50;99.90;;;;;;5069708;28;19927;-71
2021/11/08 15:05:03;;;;;;;;;;;10.40;99.90;;;;;;5067705;28;19917;-71
2021/11/08 15:07:34;;;;;;;;;;;10.40;99.90;;;;;;5072284;28;20273;-71
2021/11/08 15:10:01;;;;;;;;;;;10.30;99.90;;;;;;5090600;28;19920;-71
2021/11/08 15:12:31;;;;;;;;;;;10.30;99.90;;;;;;5069982;28;20349;-71
2021/11/08 15:14:58;;;;;;;;;;;10.20;99.90;;;;;;5070653;28;19947;-71
2021/11/08 15:17:29;;;;;;;;;;;10.10;99.90;;;;;;5064948;28;19924;-71
2021/11/08 15:20:01;;;;;;;;;;;10.00;99.90;;;;;;5064557;28;19924;-71
2021/11/08 15:22:29;;;;;;;;;;;9.90;99.90;;;;;;5073139;28;19916;-71
2021/11/08 15:24:55;;;;;;;;;;;9.90;99.90;;;;;;5067673;28;19920;-71
2021/11/08 15:27:27;;;;;;;;;;;9.90;99.90;;;;;;5071166;28;19916;-71
2021/11/08 15:30:01;;;;;;;;;;;9.80;99.90;;;;;;5068317;28;19920;-71
2021/11/08 15:32:28;;;;;;;;;;;9.80;99.90;;;;;;5060381;28;19958;-71
2021/11/08 15:34:54;;;;;;;;;;;9.80;99.90;;;;;;5068840;28;20361;-71
2021/11/08 15:37:22;;;;;;;;;;;9.80;99.90;;;;;;5075178;28;19970;-71
2021/11/08 15:39:48;;;;;;;;;;;9.80;99.90;;;;;;5070547;28;19923;-70
2021/11/08 15:42:13;;;;;;;;;;;9.80;99.90;;;;;;5058075;28;19919;-70
2021/11/08 15:44:39;;;;;;;;;;;9.70;99.90;;;;;;5085342;28;19958;-70
2021/11/08 15:47:05;;;;;;;;;;;9.70;99.90;;;;;;5070567;28;19924;-70
2021/11/08 15:49:31;;;;;;;;;;;9.60;99.90;;;;;;5067586;28;19923;-70
2021/11/08 15:51:57;;;;;;;;;;;9.50;99.90;;;;;;5063773;28;19920;-70
2021/11/08 15:54:24;;;;;;;;;;;9.50;99.90;;;;;;5067303;28;19916;-69
2021/11/08 15:56:54;;;;;;;;;;;9.50;99.90;;;;;;5069288;28;19931;-69
2021/11/08 15:59:20;;;;;;;;;;;9.50;99.90;;;;;;5069002;28;19923;-70
2021/11/08 16:01:46;;;;;;;;;;;9.40;99.90;;;;;;5068017;28;20292;-70
2021/11/08 16:04:12;;;;;;;;;;;9.40;99.90;;;;;;5081396;28;19917;-69